createdAt,value
2023-04-07T00:02:00.232Z,100303.00
2023-04-07T00:04:28.233Z,100309.00
2023-04-07T00:06:56.586Z,100305.00
2023-04-07T00:09:24.421Z,100299.00
2023-04-07T00:11:52.887Z,100310.00
2023-04-07T00:14:20.753Z,100304.00
2023-04-07T00:16:48.659Z,100301.00
2023-04-07T00:19:16.846Z,100300.00
2023-04-07T00:21:44.972Z,100301.00
2023-04-07T00:24:16.215Z,100305.00
2023-04-07T00:26:46.468Z,100299.00
2023-04-07T00:29:14.279Z,100291.00
2023-04-07T00:31:44.798Z,100291.00
2023-04-07T00:34:12.712Z,100288.00
2023-04-07T00:36:42.751Z,100283.00
2023-04-07T00:39:10.521Z,100290.00
2023-04-07T00:41:39.340Z,100288.00
2023-04-07T00:44:07.210Z,100281.00
2023-04-07T00:46:35.024Z,100294.00
2023-04-07T00:49:02.719Z,100288.00
2023-04-07T00:51:31.854Z,100282.00
2023-04-07T00:54:00.100Z,100280.00
2023-04-07T00:56:27.851Z,100279.00
2023-04-07T00:58:55.978Z,100282.00
2023-04-07T01:01:25.719Z,100274.00
2023-04-07T01:04:06.270Z,100275.00
2023-04-07T01:06:36.046Z,100270.00
2023-04-07T01:09:09.887Z,100277.00
2023-04-07T01:11:39.551Z,100273.00
2023-04-07T01:14:07.481Z,100266.00
2023-04-07T01:16:43.423Z,100265.00
2023-04-07T01:19:14.558Z,100264.00
2023-04-07T01:21:45.800Z,100255.00
2023-04-07T01:24:20.616Z,100263.00
2023-04-07T01:26:48.723Z,100262.00
2023-04-07T01:29:26.469Z,100260.00
2023-04-07T01:31:55.881Z,100251.00
2023-04-07T01:34:24.451Z,100256.00
2023-04-07T01:36:52.266Z,100260.00
2023-04-07T01:39:20.114Z,100251.00
2023-04-07T01:41:47.841Z,100260.00
2023-04-07T01:44:15.726Z,100265.00
2023-04-07T01:46:43.901Z,100266.00
2023-04-07T01:49:12.521Z,100273.00
2023-04-07T01:51:40.548Z,100268.00
2023-04-07T01:54:08.608Z,100279.00
2023-04-07T01:56:36.708Z,100280.00
2023-04-07T01:59:07.629Z,100277.00
2023-04-07T02:01:36.444Z,100276.00
2023-04-07T02:04:12.739Z,100269.00
2023-04-07T02:06:45.245Z,100269.00
2023-04-07T02:09:14.146Z,100274.00
2023-04-07T02:11:42.419Z,100270.00
2023-04-07T02:14:10.287Z,100266.00
2023-04-07T02:16:56.337Z,100265.00
2023-04-07T02:19:25.193Z,100271.00
2023-04-07T02:21:53.231Z,100269.00
2023-04-07T02:24:22.275Z,100264.00
2023-04-07T02:26:50.182Z,100259.00
2023-04-07T02:29:18.669Z,100257.00
2023-04-07T02:31:46.712Z,100263.00
2023-04-07T02:34:14.658Z,100266.00
2023-04-07T02:40:37.567Z,100267.00
2023-04-07T02:43:05.479Z,100266.00
2023-04-07T02:45:33.403Z,100270.00
2023-04-07T02:48:01.101Z,100266.00
2023-04-07T02:50:29.384Z,100269.00
2023-04-07T02:53:00.308Z,100275.00
2023-04-07T02:55:28.218Z,100266.00
2023-04-07T02:57:56.439Z,100270.00
2023-04-07T03:00:50.964Z,100268.00
2023-04-07T03:03:24.281Z,100267.00
2023-04-07T03:06:11.142Z,100266.00
2023-04-07T03:08:49.155Z,100263.00
2023-04-07T03:11:17.127Z,100256.00
2023-04-07T03:13:45.389Z,100257.00
2023-04-07T03:16:13.514Z,100255.00
2023-04-07T03:18:54.982Z,100260.00
2023-04-07T03:21:23.831Z,100261.00
2023-04-07T03:23:51.755Z,100262.00
2023-04-07T03:26:19.710Z,100265.00
2023-04-07T03:28:47.492Z,100265.00
2023-04-07T03:31:16.180Z,100261.00
2023-04-07T03:33:44.467Z,100255.00
2023-04-07T03:36:14.306Z,100249.00
2023-04-07T03:38:42.397Z,100252.00
2023-04-07T03:41:10.292Z,100251.00
2023-04-07T03:43:38.091Z,100250.00
2023-04-07T03:46:06.168Z,100259.00
2023-04-07T03:48:33.948Z,100256.00
2023-04-07T03:51:06.523Z,100252.00
2023-04-07T03:53:35.095Z,100250.00
2023-04-07T03:56:13.412Z,100254.00
2023-04-07T03:58:51.525Z,100242.00
2023-04-07T04:05:08.968Z,100241.00
2023-04-07T04:07:37.016Z,100246.00
2023-04-07T04:10:06.898Z,100256.00
2023-04-07T04:12:41.916Z,100253.00
2023-04-07T04:15:12.075Z,100263.00
2023-04-07T04:17:41.792Z,100259.00
2023-04-07T04:20:10.526Z,100260.00
2023-04-07T04:22:44.003Z,100262.00
2023-04-07T04:25:12.662Z,100257.00
2023-04-07T04:27:44.631Z,100266.00
2023-04-07T04:30:18.519Z,100267.00
2023-04-07T04:32:53.971Z,100261.00
2023-04-07T04:35:29.216Z,100265.00
2023-04-07T04:38:08.126Z,100271.00
2023-04-07T04:40:38.170Z,100269.00
2023-04-07T04:43:07.438Z,100264.00
2023-04-07T04:45:37.723Z,100271.00
2023-04-07T04:48:07.556Z,100275.00
2023-04-07T04:50:36.734Z,100265.00
2023-04-07T04:53:10.624Z,100280.00
2023-04-07T04:55:48.474Z,100267.00
2023-04-07T04:58:20.805Z,100282.00
2023-04-07T05:00:58.262Z,100280.00
2023-04-07T05:03:32.580Z,100284.00
2023-04-07T05:06:04.695Z,100288.00
2023-04-07T05:08:33.552Z,100283.00
2023-04-07T05:11:01.941Z,100282.00
2023-04-07T05:13:35.216Z,100286.00
2023-04-07T05:16:05.165Z,100288.00
2023-04-07T05:18:33.437Z,100290.00
2023-04-07T05:21:02.370Z,100296.00
2023-04-07T05:23:31.825Z,100291.00
2023-04-07T05:25:59.777Z,100293.00
2023-04-07T05:28:27.607Z,100299.00
2023-04-07T05:30:58.754Z,100301.00
2023-04-07T05:33:31.559Z,100296.00
2023-04-07T05:35:59.714Z,100299.00
2023-04-07T05:38:27.681Z,100298.00
2023-04-07T05:40:59.817Z,100297.00
2023-04-07T05:43:32.633Z,100299.00
2023-04-07T05:46:00.872Z,100293.00
2023-04-07T05:48:28.977Z,100299.00
2023-04-07T05:50:56.946Z,100303.00
2023-04-07T05:53:24.630Z,100308.00
2023-04-07T05:55:52.765Z,100311.00
2023-04-07T05:58:36.285Z,100307.00
2023-04-07T06:01:04.731Z,100306.00
2023-04-07T06:03:32.861Z,100308.00
2023-04-07T06:06:21.832Z,100319.00
2023-04-07T06:08:49.759Z,100311.00
2023-04-07T06:11:17.355Z,100321.00
2023-04-07T06:13:48.217Z,100317.00
2023-04-07T06:16:17.451Z,100308.00
2023-04-07T06:18:47.098Z,100322.00
2023-04-07T06:21:15.097Z,100315.00
2023-04-07T06:23:42.911Z,100326.00
2023-04-07T06:26:11.489Z,100320.00
2023-04-07T06:28:39.400Z,100320.00
2023-04-07T06:31:07.421Z,100317.00
2023-04-07T06:33:36.966Z,100331.00
2023-04-07T06:36:04.998Z,100323.00
2023-04-07T06:38:32.881Z,100320.00
2023-04-07T06:41:01.047Z,100321.00
2023-04-07T06:43:28.842Z,100317.00
2023-04-07T06:46:02.356Z,100326.00
2023-04-07T06:48:30.316Z,100334.00
2023-04-07T06:50:58.011Z,100330.00
2023-04-07T06:53:25.850Z,100324.00
2023-04-07T06:56:03.097Z,100325.00
2023-04-07T06:58:30.892Z,100332.00
2023-04-07T07:00:58.756Z,100326.00
2023-04-07T07:03:27.988Z,100335.00
2023-04-07T07:05:59.438Z,100335.00
2023-04-07T07:08:27.491Z,100343.00
2023-04-07T07:10:55.499Z,100343.00
2023-04-07T07:13:29.043Z,100335.00
2023-04-07T07:15:56.944Z,100345.00
2023-04-07T07:18:25.305Z,100340.00
2023-04-07T07:20:53.351Z,100344.00
2023-04-07T07:23:21.285Z,100357.00
2023-04-07T07:25:49.174Z,100356.00
2023-04-07T07:28:17.245Z,100349.00
2023-04-07T07:30:45.008Z,100351.00
2023-04-07T07:33:12.967Z,100350.00
2023-04-07T07:35:41.462Z,100361.00
2023-04-07T07:38:09.511Z,100361.00
2023-04-07T07:40:37.748Z,100362.00
2023-04-07T07:43:06.365Z,100370.00
2023-04-07T07:45:34.123Z,100367.00
2023-04-07T07:48:02.106Z,100375.00
2023-04-07T07:50:30.102Z,100374.00
2023-04-07T07:52:57.811Z,100382.00
2023-04-07T07:55:25.611Z,100384.00
2023-04-07T07:57:53.422Z,100392.00
2023-04-07T08:00:21.546Z,100384.00
2023-04-07T08:02:49.517Z,100386.00
2023-04-07T08:05:17.465Z,100389.00
2023-04-07T08:07:45.349Z,100396.00
2023-04-07T08:10:13.457Z,100388.00
2023-04-07T08:12:41.344Z,100390.00
2023-04-07T08:15:10.513Z,100396.00
2023-04-07T08:17:38.481Z,100397.00
2023-04-07T08:20:07.017Z,100392.00
2023-04-07T08:22:34.982Z,100397.00
2023-04-07T08:25:02.814Z,100396.00
2023-04-07T08:27:31.442Z,100401.00
2023-04-07T08:30:03.055Z,100400.00
2023-04-07T08:32:37.453Z,100407.00
2023-04-07T08:35:05.673Z,100410.00
2023-04-07T08:37:34.249Z,100394.00
2023-04-07T08:40:02.337Z,100406.00
2023-04-07T08:42:31.250Z,100400.00
2023-04-07T08:45:04.035Z,100402.00
2023-04-07T08:47:33.816Z,100409.00
2023-04-07T08:50:03.815Z,100401.00
2023-04-07T08:52:49.651Z,100409.00
2023-04-07T08:55:19.667Z,100403.00
2023-04-07T08:57:47.545Z,100404.00
2023-04-07T09:00:15.533Z,100409.00
2023-04-07T09:02:48.100Z,100403.00
2023-04-07T09:05:16.204Z,100414.00
2023-04-07T09:07:44.133Z,100410.00
2023-04-07T09:10:11.908Z,100418.00
2023-04-07T09:12:39.858Z,100414.00
2023-04-07T09:15:08.074Z,100414.00
2023-04-07T09:17:36.219Z,100409.00
2023-04-07T09:20:05.161Z,100427.00
2023-04-07T09:22:36.206Z,100419.00
2023-04-07T09:25:30.653Z,100409.00
2023-04-07T09:27:59.468Z,100420.00
2023-04-07T09:30:28.136Z,100422.00
2023-04-07T09:32:56.498Z,100414.00
2023-04-07T09:35:25.004Z,100417.00
2023-04-07T09:38:05.582Z,100424.00
2023-04-07T09:40:33.484Z,100412.00
2023-04-07T09:43:02.302Z,100409.00
2023-04-07T09:45:35.259Z,100399.00
2023-04-07T09:48:08.088Z,100405.00
2023-04-07T09:50:46.049Z,100406.00
2023-04-07T09:53:13.989Z,100410.00
2023-04-07T09:55:42.871Z,100415.00
2023-04-07T09:58:12.602Z,100411.00
2023-04-07T10:00:41.060Z,100416.00
2023-04-07T10:03:09.649Z,100424.00
2023-04-07T10:05:37.982Z,100417.00
2023-04-07T10:08:10.196Z,100420.00
2023-04-07T10:10:41.144Z,100425.00
2023-04-07T10:13:08.908Z,100418.00
2023-04-07T10:15:36.732Z,100415.00
2023-04-07T10:18:04.877Z,100419.00
2023-04-07T10:20:32.948Z,100424.00
2023-04-07T10:23:03.024Z,100417.00
2023-04-07T10:25:30.976Z,100424.00
2023-04-07T10:28:05.192Z,100417.00
2023-04-07T10:30:33.459Z,100415.00
2023-04-07T10:33:01.511Z,100417.00
2023-04-07T10:35:30.124Z,100421.00
2023-04-07T10:38:07.366Z,100416.00
2023-04-07T10:40:35.721Z,100421.00
2023-04-07T10:43:03.900Z,100418.00
2023-04-07T10:45:50.206Z,100430.00
2023-04-07T10:48:18.583Z,100420.00
2023-04-07T10:50:47.120Z,100421.00
2023-04-07T10:53:15.481Z,100426.00
2023-04-07T10:55:47.357Z,100426.00
2023-04-07T10:58:16.488Z,100429.00
2023-04-07T11:01:07.860Z,100428.00
2023-04-07T11:03:36.641Z,100431.00
2023-04-07T11:06:08.665Z,100432.00
2023-04-07T11:08:37.011Z,100427.00
2023-04-07T11:11:09.585Z,100434.00
2023-04-07T11:13:48.120Z,100432.00
2023-04-07T11:16:17.011Z,100431.00
2023-04-07T11:18:46.239Z,100430.00
2023-04-07T11:21:17.724Z,100429.00
2023-04-07T11:23:46.448Z,100431.00
2023-04-07T11:26:15.254Z,100427.00
2023-04-07T11:28:49.650Z,100438.00
2023-04-07T11:31:27.572Z,100435.00
2023-04-07T11:33:55.810Z,100425.00
2023-04-07T11:36:27.921Z,100419.00
2023-04-07T11:38:57.807Z,100425.00
2023-04-07T11:41:27.770Z,100419.00
2023-04-07T11:44:08.895Z,100422.00
2023-04-07T11:46:37.786Z,100417.00
2023-04-07T11:49:15.976Z,100408.00
2023-04-07T11:51:44.716Z,100425.00
2023-04-07T11:54:12.770Z,100422.00
2023-04-07T11:56:44.955Z,100418.00
2023-04-07T11:59:20.800Z,100415.00
2023-04-07T12:01:49.096Z,100411.00
2023-04-07T12:04:17.934Z,100414.00
2023-04-07T12:06:47.086Z,100417.00
2023-04-07T12:09:28.042Z,100408.00
2023-04-07T12:11:56.562Z,100415.00
2023-04-07T12:14:28.178Z,100414.00
2023-04-07T12:16:58.078Z,100410.00
2023-04-07T12:19:27.199Z,100418.00
2023-04-07T12:21:55.611Z,100422.00
2023-04-07T12:24:24.301Z,100417.00
2023-04-07T12:26:52.164Z,100415.00
2023-04-07T12:29:20.546Z,100416.00
2023-04-07T12:31:50.860Z,100405.00
2023-04-07T12:34:19.649Z,100406.00
2023-04-07T12:36:48.569Z,100418.00
2023-04-07T12:39:16.850Z,100413.00
2023-04-07T12:41:46.308Z,100405.00
2023-04-07T12:44:14.544Z,100416.00
2023-04-07T12:46:43.621Z,100412.00
2023-04-07T12:49:11.381Z,100420.00
2023-04-07T12:51:40.395Z,100417.00
2023-04-07T12:54:08.427Z,100420.00
2023-04-07T12:56:36.850Z,100416.00
2023-04-07T12:59:05.529Z,100412.00
2023-04-07T13:01:34.485Z,100421.00
2023-04-07T13:04:02.550Z,100426.00
2023-04-07T13:06:31.454Z,100424.00
2023-04-07T13:08:59.266Z,100425.00
2023-04-07T13:11:27.740Z,100426.00
2023-04-07T13:13:57.869Z,100423.00
2023-04-07T13:16:27.299Z,100420.00
2023-04-07T13:18:55.053Z,100416.00
2023-04-07T13:23:55.110Z,100422.00
2023-04-07T13:26:23.643Z,100413.00
2023-04-07T13:28:52.022Z,100419.00
2023-04-07T13:31:22.306Z,100423.00
2023-04-07T13:33:51.060Z,100421.00
2023-04-07T13:36:21.218Z,100422.00
2023-04-07T13:38:51.324Z,100418.00
2023-04-07T13:41:19.193Z,100407.00
2023-04-07T13:43:47.862Z,100424.00
2023-04-07T13:46:28.073Z,100417.00
2023-04-07T13:48:57.203Z,100414.00
2023-04-07T13:51:25.078Z,100403.00
2023-04-07T13:53:52.983Z,100413.00
2023-04-07T13:56:27.721Z,100400.00
2023-04-07T13:58:55.576Z,100403.00
2023-04-07T14:01:23.868Z,100405.00
2023-04-07T14:03:53.317Z,100407.00
2023-04-07T14:06:24.302Z,100397.00
2023-04-07T14:08:51.995Z,100410.00
2023-04-07T14:11:23.146Z,100405.00
2023-04-07T14:13:53.614Z,100382.00
2023-04-07T14:16:21.695Z,100398.00
2023-04-07T14:18:49.947Z,100397.00
2023-04-07T14:21:18.018Z,100404.00
2023-04-07T14:23:46.192Z,100395.00
2023-04-07T14:26:14.247Z,100393.00
2023-04-07T14:28:42.145Z,100387.00
2023-04-07T14:31:16.683Z,100398.00
2023-04-07T14:33:45.110Z,100387.00
2023-04-07T14:36:14.769Z,100398.00
2023-04-07T14:38:43.134Z,100394.00
2023-04-07T14:41:10.951Z,100389.00
2023-04-07T14:43:39.916Z,100398.00
2023-04-07T14:46:08.022Z,100388.00
2023-04-07T14:48:38.051Z,100389.00
2023-04-07T14:51:10.668Z,100390.00
2023-04-07T14:53:38.620Z,100392.00
2023-04-07T14:56:06.896Z,100389.00
2023-04-07T14:58:37.700Z,100388.00
2023-04-07T15:01:06.449Z,100391.00
2023-04-07T15:03:37.547Z,100396.00
2023-04-07T15:06:12.445Z,100403.00
2023-04-07T15:08:40.732Z,100390.00
2023-04-07T15:11:08.747Z,100390.00
2023-04-07T15:13:37.005Z,100391.00
2023-04-07T15:16:08.948Z,100400.00
2023-04-07T15:18:41.132Z,100397.00
2023-04-07T15:21:09.799Z,100398.00
2023-04-07T15:23:42.151Z,100402.00
2023-04-07T15:26:10.943Z,100403.00
2023-04-07T15:28:39.784Z,100394.00
2023-04-07T15:31:10.711Z,100404.00
2023-04-07T15:33:40.334Z,100398.00
2023-04-07T15:36:08.836Z,100400.00
2023-04-07T15:38:36.936Z,100393.00
2023-04-07T15:41:05.433Z,100396.00
2023-04-07T15:43:35.041Z,100392.00
2023-04-07T15:46:02.913Z,100397.00
2023-04-07T15:48:31.009Z,100392.00
2023-04-07T15:50:58.856Z,100393.00
2023-04-07T15:53:26.926Z,100399.00
2023-04-07T15:55:55.133Z,100400.00
2023-04-07T15:58:23.111Z,100411.00
2023-04-07T16:00:51.438Z,100411.00
2023-04-07T16:03:19.877Z,100406.00
2023-04-07T16:05:48.002Z,100418.00
2023-04-07T16:08:15.899Z,100417.00
2023-04-07T16:10:44.031Z,100418.00
2023-04-07T16:13:11.946Z,100425.00
2023-04-07T16:15:41.050Z,100421.00
2023-04-07T16:18:10.169Z,100423.00
2023-04-07T16:20:38.144Z,100434.00
2023-04-07T16:23:06.122Z,100430.00
2023-04-07T16:25:33.854Z,100437.00
2023-04-07T16:28:01.750Z,100435.00
2023-04-07T16:30:29.650Z,100432.00
2023-04-07T16:32:57.617Z,100438.00
2023-04-07T16:35:25.556Z,100437.00
2023-04-07T16:37:55.911Z,100450.00
2023-04-07T16:40:23.981Z,100456.00
2023-04-07T16:42:51.691Z,100458.00
2023-04-07T16:45:19.911Z,100467.00
2023-04-07T16:47:47.800Z,100465.00
2023-04-07T16:50:19.244Z,100470.00
2023-04-07T16:52:48.110Z,100475.00
2023-04-07T16:55:16.122Z,100479.00
2023-04-07T16:57:44.329Z,100483.00
2023-04-07T17:00:12.865Z,100484.00
2023-04-07T17:02:40.870Z,100492.00
2023-04-07T17:05:09.046Z,100487.00
2023-04-07T17:07:37.079Z,100490.00
2023-04-07T17:10:05.180Z,100502.00
2023-04-07T17:12:33.210Z,100497.00
2023-04-07T17:15:01.175Z,100504.00
2023-04-07T17:17:29.521Z,100506.00
2023-04-07T17:20:00.275Z,100505.00
2023-04-07T17:22:28.554Z,100517.00
2023-04-07T17:24:57.122Z,100515.00
2023-04-07T17:27:25.163Z,100516.00
2023-04-07T17:29:53.156Z,100526.00
2023-04-07T17:32:21.194Z,100523.00
2023-04-07T17:34:49.330Z,100520.00
2023-04-07T17:37:17.318Z,100531.00
2023-04-07T17:39:45.095Z,100524.00
2023-04-07T17:42:12.916Z,100535.00
2023-04-07T17:44:40.883Z,100536.00
2023-04-07T17:47:08.689Z,100540.00
2023-04-07T17:49:36.446Z,100540.00
2023-04-07T17:52:04.281Z,100546.00
2023-04-07T17:54:32.059Z,100540.00
2023-04-07T17:57:01.226Z,100552.00
2023-04-07T17:59:29.300Z,100552.00
2023-04-07T18:01:57.206Z,100556.00
2023-04-07T18:04:26.704Z,100554.00
2023-04-07T18:06:54.989Z,100554.00
2023-04-07T18:09:23.088Z,100556.00
2023-04-07T18:11:50.925Z,100560.00
2023-04-07T18:14:18.773Z,100561.00
2023-04-07T18:16:46.645Z,100565.00
2023-04-07T18:19:14.804Z,100569.00
2023-04-07T18:21:42.893Z,100572.00
2023-04-07T18:24:10.672Z,100577.00
2023-04-07T18:26:38.527Z,100577.00
2023-04-07T18:29:09.602Z,100581.00
2023-04-07T18:31:39.235Z,100592.00
2023-04-07T18:34:07.001Z,100592.00
2023-04-07T18:36:35.025Z,100597.00
2023-04-07T18:39:03.176Z,100599.00
2023-04-07T18:41:31.436Z,100601.00
2023-04-07T18:43:59.418Z,100605.00
2023-04-07T18:46:27.816Z,100611.00
2023-04-07T18:48:56.279Z,100620.00
2023-04-07T18:51:24.432Z,100621.00
2023-04-07T18:53:52.356Z,100618.00
2023-04-07T18:56:23.108Z,100620.00
2023-04-07T18:58:51.569Z,100619.00
2023-04-07T19:01:21.131Z,100633.00
2023-04-07T19:03:49.203Z,100634.00
2023-04-07T19:06:17.338Z,100631.00
2023-04-07T19:08:45.315Z,100639.00
2023-04-07T19:11:13.090Z,100644.00
2023-04-07T19:13:41.007Z,100651.00
2023-04-07T19:16:09.012Z,100655.00
2023-04-07T19:18:36.918Z,100652.00
2023-04-07T19:21:05.092Z,100660.00
2023-04-07T19:23:33.155Z,100656.00
2023-04-07T19:26:01.389Z,100661.00
2023-04-07T19:28:29.480Z,100663.00
2023-04-07T19:30:57.365Z,100664.00
2023-04-07T19:33:25.259Z,100669.00
2023-04-07T19:35:53.270Z,100667.00
2023-04-07T19:38:21.386Z,100676.00
2023-04-07T19:40:50.279Z,100678.00
2023-04-07T19:43:18.041Z,100676.00
2023-04-07T19:45:49.687Z,100682.00
2023-04-07T19:48:17.939Z,100685.00
2023-04-07T19:50:50.379Z,100685.00
2023-04-07T19:53:18.489Z,100687.00
2023-04-07T19:55:46.440Z,100697.00
2023-04-07T19:58:14.408Z,100688.00
2023-04-07T20:00:44.446Z,100690.00
2023-04-07T20:03:12.949Z,100697.00
2023-04-07T20:05:41.124Z,100692.00
2023-04-07T20:08:09.699Z,100697.00
2023-04-07T20:10:38.029Z,100703.00
2023-04-07T20:13:06.493Z,100695.00
2023-04-07T20:15:34.363Z,100707.00
2023-04-07T20:18:02.314Z,100710.00
2023-04-07T20:20:31.047Z,100712.00
2023-04-07T20:22:59.374Z,100706.00
2023-04-07T20:25:27.663Z,100698.00
2023-04-07T20:27:55.523Z,100712.00
2023-04-07T20:30:24.164Z,100716.00
2023-04-07T20:32:52.131Z,100708.00
2023-04-07T20:35:20.076Z,100715.00
2023-04-07T20:37:47.939Z,100717.00
2023-04-07T20:40:16.424Z,100718.00
2023-04-07T20:42:44.412Z,100719.00
2023-04-07T20:45:12.798Z,100726.00
2023-04-07T20:47:41.017Z,100722.00
2023-04-07T20:50:09.495Z,100718.00
2023-04-07T20:52:44.572Z,100723.00
2023-04-07T20:55:12.459Z,100729.00
2023-04-07T20:57:41.095Z,100726.00
2023-04-07T21:00:10.618Z,100725.00
2023-04-07T21:02:38.688Z,100726.00
2023-04-07T21:05:06.919Z,100733.00
2023-04-07T21:07:34.868Z,100733.00
2023-04-07T21:10:03.090Z,100740.00
2023-04-07T21:12:31.093Z,100735.00
2023-04-07T21:14:58.986Z,100741.00
2023-04-07T21:17:26.973Z,100734.00
2023-04-07T21:19:54.925Z,100736.00
2023-04-07T21:22:23.069Z,100737.00
2023-04-07T21:24:53.037Z,100734.00
2023-04-07T21:27:21.309Z,100732.00
2023-04-07T21:29:49.398Z,100738.00
2023-04-07T21:32:17.195Z,100731.00
2023-04-07T21:34:45.081Z,100745.00
2023-04-07T21:37:12.862Z,100743.00
2023-04-07T21:39:41.069Z,100745.00
2023-04-07T21:42:08.844Z,100743.00
2023-04-07T21:44:36.617Z,100747.00
2023-04-07T21:47:04.576Z,100748.00
2023-04-07T21:49:32.844Z,100752.00
2023-04-07T21:52:01.180Z,100743.00
2023-04-07T21:54:29.468Z,100744.00
2023-04-07T21:56:57.500Z,100756.00
2023-04-07T21:59:26.136Z,100750.00
2023-04-07T22:01:55.670Z,100754.00
2023-04-07T22:04:23.716Z,100760.00
2023-04-07T22:06:51.852Z,100746.00
2023-04-07T22:09:19.947Z,100749.00
2023-04-07T22:11:47.907Z,100760.00
2023-04-07T22:14:15.828Z,100760.00
2023-04-07T22:16:43.903Z,100755.00
2023-04-07T22:19:11.837Z,100750.00
2023-04-07T22:21:40.703Z,100759.00
2023-04-07T22:24:08.579Z,100758.00
2023-04-07T22:26:36.311Z,100755.00
2023-04-07T22:29:04.109Z,100754.00
2023-04-07T22:31:32.217Z,100751.00
2023-04-07T22:34:00.143Z,100748.00
2023-04-07T22:36:28.379Z,100754.00
2023-04-07T22:38:56.850Z,100752.00
2023-04-07T22:41:24.628Z,100749.00
2023-04-07T22:43:52.340Z,100760.00
2023-04-07T22:46:20.783Z,100757.00
2023-04-07T22:48:49.394Z,100762.00
2023-04-07T22:51:17.274Z,100762.00
2023-04-07T22:53:45.132Z,100760.00
2023-04-07T22:56:12.996Z,100766.00
2023-04-07T22:58:40.719Z,100765.00
2023-04-07T23:01:08.528Z,100769.00
2023-04-07T23:03:36.631Z,100770.00
2023-04-07T23:06:04.876Z,100773.00
2023-04-07T23:08:33.042Z,100765.00
2023-04-07T23:11:01.214Z,100763.00
2023-04-07T23:13:29.213Z,100770.00
2023-04-07T23:15:56.887Z,100766.00
2023-04-07T23:18:24.734Z,100759.00
2023-04-07T23:20:52.837Z,100760.00
2023-04-07T23:23:20.814Z,100754.00
2023-04-07T23:25:48.538Z,100753.00
2023-04-07T23:28:16.630Z,100759.00
2023-04-07T23:30:44.777Z,100762.00
2023-04-07T23:33:14.298Z,100755.00
2023-04-07T23:35:42.571Z,100756.00
2023-04-07T23:38:11.220Z,100746.00
2023-04-07T23:40:39.153Z,100742.00
2023-04-07T23:43:08.280Z,100748.00
2023-04-07T23:45:37.073Z,100757.00
2023-04-07T23:48:05.268Z,100763.00
2023-04-07T23:50:33.117Z,100759.00
2023-04-07T23:53:01.967Z,100766.00
2023-04-07T23:55:30.276Z,100766.00
2023-04-07T23:57:58.131Z,100766.00
